aviador You're here:

YPXM Decoded Metar

CHRISTMAS ISLAND in CHRISTMAS ISLAND
Report Time2017-04-25 06:30:00
UTC Time2017-04-25 06:36:19
Flight Rules ifr IFR
Wind090° at 10 kt
W.Decomp.*RWY 36: 0.2 kt HW 10.0 kt RCW
W.Rank090° ranks 6
Current wind is above 090° avg. (8.4)
Visibility9999 m
Phenomena:N/A
Clouds:Broken 008 Hf
Overcast 012 Hf
Expected CloudBase > 1,200 ft AGL from Temp-Dew spread
Ceiling800 ft
Temp27°C (ISA +14)
Dew Point24°C (84% RH)
Heat Index30.1°C
QNH1012 hPa
Density Alt2,858 ft
Elevation850 ft
Report Wrong Elevation
Raw Report
SPECI YPXM 250630Z AUTO 09010KT 9999 // BKN008 OVC012 27/24 Q1012=

Extra information for YPXM:More info

Metar Taf Metar & Taf Last 4 Metars F.Rules Stats Wind Profile Meteogram Temp Stats Airport Information Weather charts Add Link Nearby VenuesMetar ALERT Operation Metar Decoded Social comments